Danville, Maine
Current Conditions -  °F | °C
As of 11:35 PM on Wednesday 22 Oct 2014 (Local Time) from KLEW Reporting Station
Overcast Overcast  
Wind Chill: 41°   Ceiling: 900
Heat Index: 46°   Visibility: 7mi
Dew Point: 41°   Wind: 13mph
Humidity: 81%   Direction: 30°NNE
Pressure: 30.03"   Gusts: 24mph
Location:  44.02°N, 70.26°W
Report Text: KLEW 230335Z AUTO 03011G21KT 7SM OVC009 08/05 A3003 RMK AO1
Loading
Personal Weather Stations






























Interactive Weather Map
Tropical Storm Tracking
New forecast layout! Learn more

10-Day Weather Forecast

Advertisements
Track Severe Weather on mobile